sensor_id;sensor_type;location;lat;lon;timestamp;temperature;humidity
35894;DHT22;21994;48.204;16.516;2023-05-07T00:01:57;11.50;99.90
35894;DHT22;21994;48.204;16.516;2023-05-07T00:04:23;11.50;99.90
35894;DHT22;21994;48.204;16.516;2023-05-07T00:06:49;11.40;99.90
35894;DHT22;21994;48.204;16.516;2023-05-07T00:09:15;11.40;99.90
35894;DHT22;21994;48.204;16.516;2023-05-07T00:11:42;11.40;99.90
35894;DHT22;21994;48.204;16.516;2023-05-07T00:14:07;11.40;99.90
35894;DHT22;21994;48.204;16.516;2023-05-07T00:16:33;11.40;99.90
35894;DHT22;21994;48.204;16.516;2023-05-07T00:18:59;11.40;99.90
35894;DHT22;21994;48.204;16.516;2023-05-07T00:21:25;11.40;99.90
35894;DHT22;21994;48.204;16.516;2023-05-07T00:23:53;11.30;99.90
35894;DHT22;21994;48.204;16.516;2023-05-07T00:26:19;11.20;99.90
35894;DHT22;21994;48.204;16.516;2023-05-07T00:28:46;11.20;99.90
35894;DHT22;21994;48.204;16.516;2023-05-07T00:31:12;11.20;99.90
35894;DHT22;21994;48.204;16.516;2023-05-07T00:33:38;11.10;99.90
35894;DHT22;21994;48.204;16.516;2023-05-07T00:36:04;11.10;99.90
35894;DHT22;21994;48.204;16.516;2023-05-07T00:38:30;11.10;99.90
35894;DHT22;21994;48.204;16.516;2023-05-07T00:40:56;11.00;99.90
35894;DHT22;21994;48.204;16.516;2023-05-07T00:43:22;11.00;99.90
35894;DHT22;21994;48.204;16.516;2023-05-07T00:45:48;11.00;99.90
35894;DHT22;21994;48.204;16.516;2023-05-07T00:48:15;10.90;99.90
35894;DHT22;21994;48.204;16.516;2023-05-07T00:50:41;10.90;99.90
35894;DHT22;21994;48.204;16.516;2023-05-07T00:53:07;10.80;99.90
35894;DHT22;21994;48.204;16.516;2023-05-07T00:55:35;10.80;99.90
35894;DHT22;21994;48.204;16.516;2023-05-07T00:58:01;10.80;99.90
35894;DHT22;21994;48.204;16.516;2023-05-07T01:00:27;10.80;99.90
35894;DHT22;21994;48.204;16.516;2023-05-07T01:02:53;10.80;99.90
35894;DHT22;21994;48.204;16.516;2023-05-07T01:05:20;10.80;99.90
35894;DHT22;21994;48.204;16.516;2023-05-07T01:07:47;10.70;99.90
35894;DHT22;21994;48.204;16.516;2023-05-07T01:10:14;10.70;99.90
35894;DHT22;21994;48.204;16.516;2023-05-07T01:12:41;10.60;99.90
35894;DHT22;21994;48.204;16.516;2023-05-07T01:15:08;10.60;99.90
35894;DHT22;21994;48.204;16.516;2023-05-07T01:17:36;10.50;99.90
35894;DHT22;21994;48.204;16.516;2023-05-07T01:20:04;10.50;99.90
35894;DHT22;21994;48.204;16.516;2023-05-07T01:22:34;10.50;99.90
35894;DHT22;21994;48.204;16.516;2023-05-07T01:25:05;10.50;99.90
35894;DHT22;21994;48.204;16.516;2023-05-07T01:27:33;10.50;99.90
35894;DHT22;21994;48.204;16.516;2023-05-07T01:29:59;10.40;99.90
35894;DHT22;21994;48.204;16.516;2023-05-07T01:32:32;10.40;99.90
35894;DHT22;21994;48.204;16.516;2023-05-07T01:35:03;10.30;99.90
35894;DHT22;21994;48.204;16.516;2023-05-07T01:37:31;10.30;99.90
35894;DHT22;21994;48.204;16.516;2023-05-07T01:39:57;10.20;99.90
35894;DHT22;21994;48.204;16.516;2023-05-07T01:42:23;10.20;99.90
35894;DHT22;21994;48.204;16.516;2023-05-07T01:44:49;10.10;99.90
35894;DHT22;21994;48.204;16.516;2023-05-07T01:47:16;10.10;99.90
35894;DHT22;21994;48.204;16.516;2023-05-07T01:49:42;10.10;99.90
35894;DHT22;21994;48.204;16.516;2023-05-07T01:52:10;10.10;99.90
35894;DHT22;21994;48.204;16.516;2023-05-07T01:54:37;10.10;99.90
35894;DHT22;21994;48.204;16.516;2023-05-07T01:57:03;10.10;99.90
35894;DHT22;21994;48.204;16.516;2023-05-07T01:59:29;10.00;99.90
35894;DHT22;21994;48.204;16.516;2023-05-07T02:01:55;10.00;99.90
35894;DHT22;21994;48.204;16.516;2023-05-07T02:04:21;10.10;99.90
35894;DHT22;21994;48.204;16.516;2023-05-07T02:06:47;10.00;99.90
35894;DHT22;21994;48.204;16.516;2023-05-07T02:09:13;10.00;99.90
35894;DHT22;21994;48.204;16.516;2023-05-07T02:11:40;10.00;99.90
35894;DHT22;21994;48.204;16.516;2023-05-07T02:14:06;10.00;99.90
35894;DHT22;21994;48.204;16.516;2023-05-07T02:16:32;9.90;99.90
35894;DHT22;21994;48.204;16.516;2023-05-07T02:18:58;9.90;99.90
35894;DHT22;21994;48.204;16.516;2023-05-07T02:21:24;9.90;99.90
35894;DHT22;21994;48.204;16.516;2023-05-07T02:23:50;9.90;99.90
35894;DHT22;21994;48.204;16.516;2023-05-07T02:26:16;9.80;99.90
35894;DHT22;21994;48.204;16.516;2023-05-07T02:28:43;9.80;99.90
35894;DHT22;21994;48.204;16.516;2023-05-07T02:31:09;9.80;99.90
35894;DHT22;21994;48.204;16.516;2023-05-07T02:33:35;9.80;99.90
35894;DHT22;21994;48.204;16.516;2023-05-07T02:36:06;9.80;99.90
35894;DHT22;21994;48.204;16.516;2023-05-07T02:38:33;9.80;99.90
35894;DHT22;21994;48.204;16.516;2023-05-07T02:40:59;9.80;99.90
35894;DHT22;21994;48.204;16.516;2023-05-07T02:43:25;9.80;99.90
35894;DHT22;21994;48.204;16.516;2023-05-07T02:46:03;9.70;99.90
35894;DHT22;21994;48.204;16.516;2023-05-07T02:48:30;9.70;99.90
35894;DHT22;21994;48.204;16.516;2023-05-07T02:50:57;9.70;99.90
35894;DHT22;21994;48.204;16.516;2023-05-07T02:53:23;9.70;99.90
35894;DHT22;21994;48.204;16.516;2023-05-07T02:55:52;9.70;99.90
35894;DHT22;21994;48.204;16.516;2023-05-07T02:58:19;9.70;99.90
35894;DHT22;21994;48.204;16.516;2023-05-07T03:00:45;9.70;99.90
35894;DHT22;21994;48.204;16.516;2023-05-07T03:03:11;9.70;99.90
35894;DHT22;21994;48.204;16.516;2023-05-07T03:05:37;9.70;99.90
35894;DHT22;21994;48.204;16.516;2023-05-07T03:08:03;9.70;99.90
35894;DHT22;21994;48.204;16.516;2023-05-07T03:10:30;9.70;99.90
35894;DHT22;21994;48.204;16.516;2023-05-07T03:12:56;9.70;99.90
35894;DHT22;21994;48.204;16.516;2023-05-07T03:15:21;9.60;99.90
35894;DHT22;21994;48.204;16.516;2023-05-07T03:17:48;9.70;99.90
35894;DHT22;21994;48.204;16.516;2023-05-07T03:20:14;9.70;99.90
35894;DHT22;21994;48.204;16.516;2023-05-07T03:22:40;9.70;99.90
35894;DHT22;21994;48.204;16.516;2023-05-07T03:25:07;9.70;99.90
35894;DHT22;21994;48.204;16.516;2023-05-07T03:27:33;9.80;99.90
35894;DHT22;21994;48.204;16.516;2023-05-07T03:30:00;9.80;99.90
35894;DHT22;21994;48.204;16.516;2023-05-07T03:32:26;9.70;99.90
35894;DHT22;21994;48.204;16.516;2023-05-07T03:34:52;9.80;99.90
35894;DHT22;21994;48.204;16.516;2023-05-07T03:37:18;9.90;99.90
35894;DHT22;21994;48.204;16.516;2023-05-07T03:39:44;10.00;99.90
35894;DHT22;21994;48.204;16.516;2023-05-07T03:42:10;10.10;99.90
35894;DHT22;21994;48.204;16.516;2023-05-07T03:44:36;10.20;99.90
35894;DHT22;21994;48.204;16.516;2023-05-07T03:47:02;10.50;99.90
35894;DHT22;21994;48.204;16.516;2023-05-07T03:49:29;10.60;99.90
35894;DHT22;21994;48.204;16.516;2023-05-07T03:51:54;10.80;99.90
35894;DHT22;21994;48.204;16.516;2023-05-07T03:54:21;10.90;99.90
35894;DHT22;21994;48.204;16.516;2023-05-07T03:56:47;11.00;99.90
35894;DHT22;21994;48.204;16.516;2023-05-07T03:59:13;11.30;99.90
35894;DHT22;21994;48.204;16.516;2023-05-07T04:01:39;11.60;99.90
35894;DHT22;21994;48.204;16.516;2023-05-07T04:04:05;11.80;99.90
35894;DHT22;21994;48.204;16.516;2023-05-07T04:06:31;11.90;99.90
35894;DHT22;21994;48.204;16.516;2023-05-07T04:08:57;11.90;99.90
35894;DHT22;21994;48.204;16.516;2023-05-07T04:11:23;11.90;99.90
35894;DHT22;21994;48.204;16.516;2023-05-07T04:13:49;11.80;99.90
35894;DHT22;21994;48.204;16.516;2023-05-07T04:16:15;11.90;99.90
35894;DHT22;21994;48.204;16.516;2023-05-07T04:18:41;12.00;99.90
35894;DHT22;21994;48.204;16.516;2023-05-07T04:21:17;12.00;99.90
35894;DHT22;21994;48.204;16.516;2023-05-07T04:23:45;12.00;99.90
35894;DHT22;21994;48.204;16.516;2023-05-07T04:26:12;12.00;99.90
35894;DHT22;21994;48.204;16.516;2023-05-07T04:28:38;12.00;99.90
35894;DHT22;21994;48.204;16.516;2023-05-07T04:31:05;12.10;99.90
35894;DHT22;21994;48.204;16.516;2023-05-07T04:33:31;12.10;99.90
35894;DHT22;21994;48.204;16.516;2023-05-07T04:36:00;12.10;99.90
35894;DHT22;21994;48.204;16.516;2023-05-07T04:38:31;12.20;99.90
35894;DHT22;21994;48.204;16.516;2023-05-07T04:41:02;12.30;99.90
35894;DHT22;21994;48.204;16.516;2023-05-07T04:43:28;12.40;99.90
35894;DHT22;21994;48.204;16.516;2023-05-07T04:45:55;12.40;99.90
35894;DHT22;21994;48.204;16.516;2023-05-07T04:48:20;12.50;99.90
35894;DHT22;21994;48.204;16.516;2023-05-07T04:50:50;12.50;99.90
35894;DHT22;21994;48.204;16.516;2023-05-07T04:53:17;12.50;99.90
35894;DHT22;21994;48.204;16.516;2023-05-07T04:55:43;12.60;99.90
35894;DHT22;21994;48.204;16.516;2023-05-07T04:58:11;12.70;99.90
35894;DHT22;21994;48.204;16.516;2023-05-07T05:00:37;12.80;99.90
35894;DHT22;21994;48.204;16.516;2023-05-07T05:03:06;12.80;99.90
35894;DHT22;21994;48.204;16.516;2023-05-07T05:05:32;12.90;99.90
35894;DHT22;21994;48.204;16.516;2023-05-07T05:07:58;13.10;99.90
35894;DHT22;21994;48.204;16.516;2023-05-07T05:10:24;13.10;99.90
35894;DHT22;21994;48.204;16.516;2023-05-07T05:12:50;13.30;99.90
35894;DHT22;21994;48.204;16.516;2023-05-07T05:15:16;13.50;99.90
35894;DHT22;21994;48.204;16.516;2023-05-07T05:17:42;13.50;99.90
35894;DHT22;21994;48.204;16.516;2023-05-07T05:20:08;13.50;99.90
35894;DHT22;21994;48.204;16.516;2023-05-07T05:22:36;13.60;99.90
35894;DHT22;21994;48.204;16.516;2023-05-07T05:25:02;13.60;99.90
35894;DHT22;21994;48.204;16.516;2023-05-07T05:27:28;13.50;99.90
35894;DHT22;21994;48.204;16.516;2023-05-07T05:29:55;13.70;99.90
35894;DHT22;21994;48.204;16.516;2023-05-07T05:32:21;13.50;99.90
35894;DHT22;21994;48.204;16.516;2023-05-07T05:34:47;13.50;99.90
35894;DHT22;21994;48.204;16.516;2023-05-07T05:37:13;13.50;99.90
35894;DHT22;21994;48.204;16.516;2023-05-07T05:39:39;13.60;99.90
35894;DHT22;21994;48.204;16.516;2023-05-07T05:42:05;13.70;99.90
35894;DHT22;21994;48.204;16.516;2023-05-07T05:44:31;13.70;99.90
35894;DHT22;21994;48.204;16.516;2023-05-07T05:46:57;13.70;99.90
35894;DHT22;21994;48.204;16.516;2023-05-07T05:49:24;13.70;99.90
35894;DHT22;21994;48.204;16.516;2023-05-07T05:51:51;13.90;99.90
35894;DHT22;21994;48.204;16.516;2023-05-07T05:54:17;13.80;99.90
35894;DHT22;21994;48.204;16.516;2023-05-07T05:56:43;13.90;99.90
35894;DHT22;21994;48.204;16.516;2023-05-07T05:59:09;13.90;99.90
35894;DHT22;21994;48.204;16.516;2023-05-07T06:01:35;14.10;99.90
35894;DHT22;21994;48.204;16.516;2023-05-07T06:04:01;14.30;99.90
35894;DHT22;21994;48.204;16.516;2023-05-07T06:06:27;14.50;99.90
35894;DHT22;21994;48.204;16.516;2023-05-07T06:08:53;14.40;99.90
35894;DHT22;21994;48.204;16.516;2023-05-07T06:11:19;14.50;99.90
35894;DHT22;21994;48.204;16.516;2023-05-07T06:13:45;14.50;99.90
35894;DHT22;21994;48.204;16.516;2023-05-07T06:16:11;14.70;99.90
35894;DHT22;21994;48.204;16.516;2023-05-07T06:18:37;14.70;99.90
35894;DHT22;21994;48.204;16.516;2023-05-07T06:21:03;14.70;99.90
35894;DHT22;21994;48.204;16.516;2023-05-07T06:23:29;14.70;99.90
35894;DHT22;21994;48.204;16.516;2023-05-07T06:25:55;14.90;99.90
35894;DHT22;21994;48.204;16.516;2023-05-07T06:28:21;15.00;99.90
35894;DHT22;21994;48.204;16.516;2023-05-07T06:30:47;15.20;99.90
35894;DHT22;21994;48.204;16.516;2023-05-07T06:33:15;15.20;99.90
35894;DHT22;21994;48.204;16.516;2023-05-07T06:35:41;15.30;99.90
35894;DHT22;21994;48.204;16.516;2023-05-07T06:38:07;15.40;99.90
35894;DHT22;21994;48.204;16.516;2023-05-07T06:40:33;15.40;99.90
35894;DHT22;21994;48.204;16.516;2023-05-07T06:42:59;15.30;99.90
35894;DHT22;21994;48.204;16.516;2023-05-07T06:45:25;15.40;99.90
35894;DHT22;21994;48.204;16.516;2023-05-07T06:47:51;15.30;99.90
35894;DHT22;21994;48.204;16.516;2023-05-07T06:50:17;15.50;99.90
35894;DHT22;21994;48.204;16.516;2023-05-07T06:52:43;15.60;99.90
35894;DHT22;21994;48.204;16.516;2023-05-07T06:55:09;15.70;99.90
35894;DHT22;21994;48.204;16.516;2023-05-07T06:57:37;15.90;99.90
35894;DHT22;21994;48.204;16.516;2023-05-07T07:00:04;16.00;99.90
35894;DHT22;21994;48.204;16.516;2023-05-07T07:02:32;16.00;99.90
35894;DHT22;21994;48.204;16.516;2023-05-07T07:04:58;16.10;99.90
35894;DHT22;21994;48.204;16.516;2023-05-07T07:07:24;16.20;99.90
35894;DHT22;21994;48.204;16.516;2023-05-07T07:09:50;16.20;99.90
35894;DHT22;21994;48.204;16.516;2023-05-07T07:12:16;16.30;99.90
35894;DHT22;21994;48.204;16.516;2023-05-07T07:14:42;16.20;99.90
35894;DHT22;21994;48.204;16.516;2023-05-07T07:17:08;16.40;99.90
35894;DHT22;21994;48.204;16.516;2023-05-07T07:19:35;16.40;99.90
35894;DHT22;21994;48.204;16.516;2023-05-07T07:22:00;16.50;99.90
35894;DHT22;21994;48.204;16.516;2023-05-07T07:24:26;16.30;99.90
35894;DHT22;21994;48.204;16.516;2023-05-07T07:26:52;16.40;99.90
35894;DHT22;21994;48.204;16.516;2023-05-07T07:29:19;16.40;99.90
35894;DHT22;21994;48.204;16.516;2023-05-07T07:31:44;16.30;99.90
35894;DHT22;21994;48.204;16.516;2023-05-07T07:34:10;16.30;99.90
35894;DHT22;21994;48.204;16.516;2023-05-07T07:36:36;16.30;99.90
35894;DHT22;21994;48.204;16.516;2023-05-07T07:39:02;16.50;99.90
35894;DHT22;21994;48.204;16.516;2023-05-07T07:41:28;17.00;99.90
35894;DHT22;21994;48.204;16.516;2023-05-07T07:43:54;17.50;99.90
35894;DHT22;21994;48.204;16.516;2023-05-07T07:46:20;17.60;99.90
35894;DHT22;21994;48.204;16.516;2023-05-07T07:48:45;18.00;99.90
35894;DHT22;21994;48.204;16.516;2023-05-07T07:51:11;18.30;99.90
35894;DHT22;21994;48.204;16.516;2023-05-07T07:53:37;18.50;99.90
35894;DHT22;21994;48.204;16.516;2023-05-07T07:56:06;18.80;99.90
35894;DHT22;21994;48.204;16.516;2023-05-07T07:58:32;19.20;99.90
35894;DHT22;21994;48.204;16.516;2023-05-07T08:00:58;18.80;99.90
35894;DHT22;21994;48.204;16.516;2023-05-07T08:03:24;18.70;99.90
35894;DHT22;21994;48.204;16.516;2023-05-07T08:05:50;18.40;99.90
35894;DHT22;21994;48.204;16.516;2023-05-07T08:08:16;18.30;99.90
35894;DHT22;21994;48.204;16.516;2023-05-07T08:10:42;18.70;99.90
35894;DHT22;21994;48.204;16.516;2023-05-07T08:13:08;18.90;99.90
35894;DHT22;21994;48.204;16.516;2023-05-07T08:15:34;19.40;99.90
35894;DHT22;21994;48.204;16.516;2023-05-07T08:18:02;19.80;99.90
35894;DHT22;21994;48.204;16.516;2023-05-07T08:20:28;19.70;99.90
35894;DHT22;21994;48.204;16.516;2023-05-07T08:22:55;19.70;99.90
35894;DHT22;21994;48.204;16.516;2023-05-07T08:25:20;19.90;99.90
35894;DHT22;21994;48.204;16.516;2023-05-07T08:27:46;20.20;99.90
35894;DHT22;21994;48.204;16.516;2023-05-07T08:30:13;20.40;99.90
35894;DHT22;21994;48.204;16.516;2023-05-07T08:32:39;20.60;99.90
35894;DHT22;21994;48.204;16.516;2023-05-07T08:35:05;20.30;99.90
35894;DHT22;21994;48.204;16.516;2023-05-07T08:37:31;19.90;99.70
35894;DHT22;21994;48.204;16.516;2023-05-07T08:39:57;19.50;99.90
35894;DHT22;21994;48.204;16.516;2023-05-07T08:42:23;19.70;99.80
35894;DHT22;21994;48.204;16.516;2023-05-07T08:44:51;20.00;99.90
35894;DHT22;21994;48.204;16.516;2023-05-07T08:47:23;20.50;99.90
35894;DHT22;21994;48.204;16.516;2023-05-07T08:49:55;21.10;98.70
35894;DHT22;21994;48.204;16.516;2023-05-07T08:52:21;21.90;99.20
35894;DHT22;21994;48.204;16.516;2023-05-07T08:54:47;22.00;97.70
35894;DHT22;21994;48.204;16.516;2023-05-07T08:57:13;21.80;97.60
35894;DHT22;21994;48.204;16.516;2023-05-07T08:59:40;21.50;98.20
35894;DHT22;21994;48.204;16.516;2023-05-07T09:02:09;20.90;97.70
35894;DHT22;21994;48.204;16.516;2023-05-07T09:04:36;20.20;99.70
35894;DHT22;21994;48.204;16.516;2023-05-07T09:07:02;20.20;99.90
35894;DHT22;21994;48.204;16.516;2023-05-07T09:09:32;20.10;99.30
35894;DHT22;21994;48.204;16.516;2023-05-07T09:11:59;19.80;99.50
35894;DHT22;21994;48.204;16.516;2023-05-07T09:14:25;19.70;99.80
35894;DHT22;21994;48.204;16.516;2023-05-07T09:16:54;19.50;99.90
35894;DHT22;21994;48.204;16.516;2023-05-07T09:19:25;19.80;99.90
35894;DHT22;21994;48.204;16.516;2023-05-07T09:21:59;20.30;98.90
35894;DHT22;21994;48.204;16.516;2023-05-07T09:24:26;20.50;98.00
35894;DHT22;21994;48.204;16.516;2023-05-07T09:26:54;20.60;99.50
35894;DHT22;21994;48.204;16.516;2023-05-07T09:29:20;20.90;98.40
35894;DHT22;21994;48.204;16.516;2023-05-07T09:31:46;21.40;96.50
35894;DHT22;21994;48.204;16.516;2023-05-07T09:34:12;21.90;95.10
35894;DHT22;21994;48.204;16.516;2023-05-07T09:36:38;22.20;95.80
35894;DHT22;21994;48.204;16.516;2023-05-07T09:39:04;21.80;95.70
35894;DHT22;21994;48.204;16.516;2023-05-07T09:41:30;21.80;98.60
35894;DHT22;21994;48.204;16.516;2023-05-07T09:43:59;22.10;96.60
35894;DHT22;21994;48.204;16.516;2023-05-07T09:46:30;22.50;96.90
35894;DHT22;21994;48.204;16.516;2023-05-07T09:49:01;23.10;95.80
35894;DHT22;21994;48.204;16.516;2023-05-07T09:51:45;24.20;94.50
35894;DHT22;21994;48.204;16.516;2023-05-07T09:54:14;24.60;92.90
35894;DHT22;21994;48.204;16.516;2023-05-07T09:56:40;24.10;92.70
35894;DHT22;21994;48.204;16.516;2023-05-07T09:59:10;23.90;93.20
35894;DHT22;21994;48.204;16.516;2023-05-07T10:01:40;23.10;93.80
35894;DHT22;21994;48.204;16.516;2023-05-07T10:04:07;22.40;94.30
35894;DHT22;21994;48.204;16.516;2023-05-07T10:06:37;22.40;94.00
35894;DHT22;21994;48.204;16.516;2023-05-07T10:09:04;22.30;95.30
35894;DHT22;21994;48.204;16.516;2023-05-07T10:11:33;22.20;94.60
35894;DHT22;21994;48.204;16.516;2023-05-07T10:14:00;22.90;93.10
35894;DHT22;21994;48.204;16.516;2023-05-07T10:16:30;23.50;93.80
35894;DHT22;21994;48.204;16.516;2023-05-07T10:18:58;23.40;92.70
35894;DHT22;21994;48.204;16.516;2023-05-07T10:21:27;23.50;93.40
35894;DHT22;21994;48.204;16.516;2023-05-07T10:24:19;23.60;91.70
35894;DHT22;21994;48.204;16.516;2023-05-07T10:26:50;24.30;91.40
35894;DHT22;21994;48.204;16.516;2023-05-07T10:29:42;25.20;92.40
35894;DHT22;21994;48.204;16.516;2023-05-07T10:32:55;25.30;91.50
35894;DHT22;21994;48.204;16.516;2023-05-07T10:35:26;25.80;93.20
35894;DHT22;21994;48.204;16.516;2023-05-07T10:37:55;25.70;90.60
35894;DHT22;21994;48.204;16.516;2023-05-07T10:40:21;25.00;91.70
35894;DHT22;21994;48.204;16.516;2023-05-07T10:45:28;24.60;90.80
35894;DHT22;21994;48.204;16.516;2023-05-07T10:48:17;23.90;90.60
35894;DHT22;21994;48.204;16.516;2023-05-07T10:50:44;24.60;91.70
35894;DHT22;21994;48.204;16.516;2023-05-07T10:55:48;25.40;90.60
35894;DHT22;21994;48.204;16.516;2023-05-07T11:00:47;25.80;90.90
35894;DHT22;21994;48.204;16.516;2023-05-07T11:03:14;26.00;88.50
35894;DHT22;21994;48.204;16.516;2023-05-07T11:05:41;26.10;88.10
35894;DHT22;21994;48.204;16.516;2023-05-07T11:08:08;25.60;87.40
35894;DHT22;21994;48.204;16.516;2023-05-07T11:13:42;25.20;88.80
35894;DHT22;21994;48.204;16.516;2023-05-07T11:18:53;25.00;89.60
35894;DHT22;21994;48.204;16.516;2023-05-07T11:21:38;24.10;90.60
35894;DHT22;21994;48.204;16.516;2023-05-07T11:24:06;24.30;90.50
35894;DHT22;21994;48.204;16.516;2023-05-07T11:26:48;24.00;89.40
35894;DHT22;21994;48.204;16.516;2023-05-07T11:29:20;23.10;91.50
35894;DHT22;21994;48.204;16.516;2023-05-07T11:31:51;23.20;92.00
35894;DHT22;21994;48.204;16.516;2023-05-07T11:34:24;23.40;90.60
35894;DHT22;21994;48.204;16.516;2023-05-07T11:36:51;23.50;91.10
35894;DHT22;21994;48.204;16.516;2023-05-07T11:39:32;23.10;91.20
35894;DHT22;21994;48.204;16.516;2023-05-07T11:41:59;23.40;92.10
35894;DHT22;21994;48.204;16.516;2023-05-07T11:44:44;23.40;89.40
35894;DHT22;21994;48.204;16.516;2023-05-07T11:47:16;23.30;90.70
35894;DHT22;21994;48.204;16.516;2023-05-07T11:49:45;23.40;92.50
35894;DHT22;21994;48.204;16.516;2023-05-07T11:52:18;23.20;91.50
35894;DHT22;21994;48.204;16.516;2023-05-07T11:54:49;23.70;92.30
35894;DHT22;21994;48.204;16.516;2023-05-07T11:57:18;23.30;91.90
35894;DHT22;21994;48.204;16.516;2023-05-07T11:59:45;23.20;92.10
35894;DHT22;21994;48.204;16.516;2023-05-07T12:02:16;23.40;94.60
35894;DHT22;21994;48.204;16.516;2023-05-07T12:04:43;22.90;91.20
35894;DHT22;21994;48.204;16.516;2023-05-07T12:07:13;22.50;93.10
35894;DHT22;21994;48.204;16.516;2023-05-07T12:09:40;22.20;93.30
35894;DHT22;21994;48.204;16.516;2023-05-07T12:12:07;22.40;93.50
35894;DHT22;21994;48.204;16.516;2023-05-07T12:14:38;22.80;94.30
35894;DHT22;21994;48.204;16.516;2023-05-07T12:17:09;22.60;93.00
35894;DHT22;21994;48.204;16.516;2023-05-07T12:19:37;22.70;92.20
35894;DHT22;21994;48.204;16.516;2023-05-07T12:22:05;22.60;91.30
35894;DHT22;21994;48.204;16.516;2023-05-07T12:24:48;22.60;93.20
35894;DHT22;21994;48.204;16.516;2023-05-07T12:27:16;23.00;90.80
35894;DHT22;21994;48.204;16.516;2023-05-07T12:29:49;23.10;91.60
35894;DHT22;21994;48.204;16.516;2023-05-07T12:32:22;23.10;92.50
35894;DHT22;21994;48.204;16.516;2023-05-07T12:34:51;22.90;91.60
35894;DHT22;21994;48.204;16.516;2023-05-07T12:37:23;22.50;91.90
35894;DHT22;21994;48.204;16.516;2023-05-07T12:40:09;22.30;92.30
35894;DHT22;21994;48.204;16.516;2023-05-07T12:42:37;21.90;91.90
35894;DHT22;21994;48.204;16.516;2023-05-07T12:45:11;21.70;92.20
35894;DHT22;21994;48.204;16.516;2023-05-07T12:47:38;22.00;94.00
35894;DHT22;21994;48.204;16.516;2023-05-07T12:50:07;22.10;92.60
35894;DHT22;21994;48.204;16.516;2023-05-07T12:52:34;22.40;92.70
35894;DHT22;21994;48.204;16.516;2023-05-07T12:55:11;22.70;92.50
35894;DHT22;21994;48.204;16.516;2023-05-07T12:57:40;23.10;91.00
35894;DHT22;21994;48.204;16.516;2023-05-07T13:00:08;23.40;92.30
35894;DHT22;21994;48.204;16.516;2023-05-07T13:02:37;23.30;92.10
35894;DHT22;21994;48.204;16.516;2023-05-07T13:05:05;23.60;91.30
35894;DHT22;21994;48.204;16.516;2023-05-07T13:07:31;23.70;91.40
35894;DHT22;21994;48.204;16.516;2023-05-07T13:09:57;23.90;91.30
35894;DHT22;21994;48.204;16.516;2023-05-07T13:12:23;24.20;90.50
35894;DHT22;21994;48.204;16.516;2023-05-07T13:14:49;24.20;92.50
35894;DHT22;21994;48.204;16.516;2023-05-07T13:17:15;24.20;88.90
35894;DHT22;21994;48.204;16.516;2023-05-07T13:19:41;23.90;88.50
35894;DHT22;21994;48.204;16.516;2023-05-07T13:22:07;23.40;90.30
35894;DHT22;21994;48.204;16.516;2023-05-07T13:24:32;23.00;91.10
35894;DHT22;21994;48.204;16.516;2023-05-07T13:26:58;23.10;92.00
35894;DHT22;21994;48.204;16.516;2023-05-07T13:29:24;23.20;91.10
35894;DHT22;21994;48.204;16.516;2023-05-07T13:31:54;23.40;91.50
35894;DHT22;21994;48.204;16.516;2023-05-07T13:34:21;23.30;90.00
35894;DHT22;21994;48.204;16.516;2023-05-07T13:36:47;23.10;90.20
35894;DHT22;21994;48.204;16.516;2023-05-07T13:39:13;22.50;91.60
35894;DHT22;21994;48.204;16.516;2023-05-07T13:41:39;22.80;91.00
35894;DHT22;21994;48.204;16.516;2023-05-07T13:44:05;22.80;91.90
35894;DHT22;21994;48.204;16.516;2023-05-07T13:46:31;23.00;91.30
35894;DHT22;21994;48.204;16.516;2023-05-07T13:48:57;22.80;89.70
35894;DHT22;21994;48.204;16.516;2023-05-07T13:51:23;22.50;91.10
35894;DHT22;21994;48.204;16.516;2023-05-07T13:53:49;22.50;90.10
35894;DHT22;21994;48.204;16.516;2023-05-07T13:56:15;22.20;90.50
35894;DHT22;21994;48.204;16.516;2023-05-07T13:58:41;21.80;91.70
35894;DHT22;21994;48.204;16.516;2023-05-07T14:01:07;21.40;91.10
35894;DHT22;21994;48.204;16.516;2023-05-07T14:03:33;21.20;92.00
35894;DHT22;21994;48.204;16.516;2023-05-07T14:05:59;21.20;91.20
35894;DHT22;21994;48.204;16.516;2023-05-07T14:08:27;21.10;92.20
35894;DHT22;21994;48.204;16.516;2023-05-07T14:10:53;21.00;92.20
35894;DHT22;21994;48.204;16.516;2023-05-07T14:13:19;20.90;91.30
35894;DHT22;21994;48.204;16.516;2023-05-07T14:15:45;20.70;92.60
35894;DHT22;21994;48.204;16.516;2023-05-07T14:18:15;20.60;92.20
35894;DHT22;21994;48.204;16.516;2023-05-07T14:20:41;20.40;92.10
35894;DHT22;21994;48.204;16.516;2023-05-07T14:23:12;20.30;93.50
35894;DHT22;21994;48.204;16.516;2023-05-07T14:25:38;20.10;92.70
35894;DHT22;21994;48.204;16.516;2023-05-07T14:28:04;19.90;93.10
35894;DHT22;21994;48.204;16.516;2023-05-07T14:30:30;19.90;93.60
35894;DHT22;21994;48.204;16.516;2023-05-07T14:32:56;19.90;93.40
35894;DHT22;21994;48.204;16.516;2023-05-07T14:35:22;19.80;93.70
35894;DHT22;21994;48.204;16.516;2023-05-07T14:37:48;19.80;93.60
35894;DHT22;21994;48.204;16.516;2023-05-07T14:40:13;19.70;93.20
35894;DHT22;21994;48.204;16.516;2023-05-07T14:42:40;19.70;93.00
35894;DHT22;21994;48.204;16.516;2023-05-07T14:45:06;19.70;92.80
35894;DHT22;21994;48.204;16.516;2023-05-07T14:47:33;19.70;93.20
35894;DHT22;21994;48.204;16.516;2023-05-07T14:49:58;19.80;94.20
35894;DHT22;21994;48.204;16.516;2023-05-07T14:52:26;19.80;92.90
35894;DHT22;21994;48.204;16.516;2023-05-07T14:54:52;19.80;93.00
35894;DHT22;21994;48.204;16.516;2023-05-07T14:57:18;19.80;93.20
35894;DHT22;21994;48.204;16.516;2023-05-07T14:59:44;19.60;93.60
35894;DHT22;21994;48.204;16.516;2023-05-07T15:02:11;19.40;93.40
35894;DHT22;21994;48.204;16.516;2023-05-07T15:04:38;19.30;93.30
35894;DHT22;21994;48.204;16.516;2023-05-07T15:07:11;19.30;93.70
35894;DHT22;21994;48.204;16.516;2023-05-07T15:09:42;19.20;93.60
35894;DHT22;21994;48.204;16.516;2023-05-07T15:12:08;19.10;93.80
35894;DHT22;21994;48.204;16.516;2023-05-07T15:14:34;19.20;94.20
35894;DHT22;21994;48.204;16.516;2023-05-07T15:17:00;19.20;93.20
35894;DHT22;21994;48.204;16.516;2023-05-07T15:19:26;19.40;93.10
35894;DHT22;21994;48.204;16.516;2023-05-07T15:21:58;19.80;93.70
35894;DHT22;21994;48.204;16.516;2023-05-07T15:24:28;20.00;93.70
35894;DHT22;21994;48.204;16.516;2023-05-07T15:26:54;20.00;92.60
35894;DHT22;21994;48.204;16.516;2023-05-07T15:29:21;20.00;92.80
35894;DHT22;21994;48.204;16.516;2023-05-07T15:31:47;20.10;92.60
35894;DHT22;21994;48.204;16.516;2023-05-07T15:34:13;20.10;92.10